createdAt,value
2022-09-17T00:01:42.897Z,4.00
2022-09-17T00:04:11.780Z,4.18
2022-09-17T00:06:41.587Z,2.17
2022-09-17T00:09:10.578Z,1.95
2022-09-17T00:11:41.097Z,6.47
2022-09-17T00:14:14.649Z,1.15
2022-09-17T00:16:45.389Z,0.47
2022-09-17T00:19:15.368Z,1.25
2022-09-17T00:21:43.831Z,1.00
2022-09-17T00:24:13.816Z,2.65
2022-09-17T00:26:42.158Z,1.35
2022-09-17T00:29:13.037Z,2.20
2022-09-17T00:31:41.801Z,1.62
2022-09-17T00:34:10.227Z,3.72
2022-09-17T00:36:40.236Z,1.08
2022-09-17T00:39:10.547Z,1.55
2022-09-17T00:41:39.869Z,0.40
2022-09-17T00:44:48.194Z,0.40
2022-09-17T00:47:21.527Z,1.25
2022-09-17T00:49:52.526Z,2.53
2022-09-17T00:52:24.815Z,4.05
2022-09-17T00:54:57.809Z,1.10
2022-09-17T00:57:26.125Z,1.60
2022-09-17T00:59:57.224Z,1.05
2022-09-17T01:02:26.696Z,1.23
2022-09-17T01:04:56.186Z,1.50
2022-09-17T01:07:37.822Z,5.00
2022-09-17T01:10:15.562Z,0.32
2022-09-17T01:13:05.391Z,0.28
2022-09-17T01:15:42.445Z,4.28
2022-09-17T01:18:37.405Z,3.03
2022-09-17T01:21:38.350Z,0.60
2022-09-17T01:24:45.913Z,1.17
2022-09-17T01:27:45.783Z,3.55
2022-09-17T01:30:22.930Z,1.20
2022-09-17T01:32:58.281Z,1.58
2022-09-17T01:35:34.241Z,1.73
2022-09-17T01:38:11.006Z,3.83
2022-09-17T01:40:47.909Z,3.33
2022-09-17T01:43:24.577Z,1.30
2022-09-17T01:45:57.005Z,0.65
2022-09-17T01:48:30.300Z,2.72
2022-09-17T01:51:05.122Z,1.17
2022-09-17T01:53:42.542Z,0.70
2022-09-17T01:56:14.560Z,2.90
2022-09-17T01:58:47.923Z,2.83
2022-09-17T02:01:20.175Z,1.55
2022-09-17T02:03:57.240Z,0.47
2022-09-17T02:06:30.187Z,1.58
2022-09-17T02:09:02.534Z,1.65
2022-09-17T02:11:37.062Z,0.30
2022-09-17T02:14:09.123Z,3.25
2022-09-17T02:16:40.880Z,0.20
2022-09-17T02:19:14.177Z,0.65
2022-09-17T02:21:48.025Z,2.10
2022-09-17T02:24:20.835Z,0.62
2022-09-17T02:26:56.977Z,0.32
2022-09-17T02:29:32.100Z,0.52
2022-09-17T02:32:00.973Z,1.02
2022-09-17T02:34:30.775Z,0.10
2022-09-17T02:37:00.335Z,0.32
2022-09-17T02:39:29.386Z,0.35
2022-09-17T02:42:07.139Z,0.20
2022-09-17T02:44:46.311Z,1.48
2022-09-17T02:47:54.413Z,0.82
2022-09-17T02:50:38.508Z,0.17
2022-09-17T02:53:26.174Z,0.17
2022-09-17T02:56:04.493Z,0.40
2022-09-17T02:58:42.251Z,0.47
2022-09-17T03:01:18.123Z,0.57
2022-09-17T03:03:50.282Z,0.10
2022-09-17T03:06:20.162Z,0.55
2022-09-17T03:08:48.916Z,0.68
2022-09-17T03:11:16.837Z,0.65
2022-09-17T03:13:45.035Z,2.62
2022-09-17T03:16:13.121Z,2.42
2022-09-17T03:18:41.254Z,0.50
2022-09-17T03:21:09.610Z,0.00
2022-09-17T03:23:39.847Z,1.08
2022-09-17T03:26:07.792Z,0.20
2022-09-17T03:28:35.916Z,0.52
2022-09-17T03:31:05.681Z,0.30
2022-09-17T03:33:33.854Z,2.17
2022-09-17T03:36:02.495Z,0.10
2022-09-17T03:38:30.512Z,0.10
2022-09-17T03:41:01.548Z,0.00
2022-09-17T03:43:30.157Z,0.60
2022-09-17T03:45:58.214Z,0.17
2022-09-17T03:48:26.131Z,0.10
2022-09-17T03:50:54.275Z,1.60
2022-09-17T03:53:23.700Z,0.10
2022-09-17T03:56:02.815Z,0.37
2022-09-17T03:58:32.252Z,0.43
2022-09-17T04:01:00.457Z,0.15
2022-09-17T04:03:29.525Z,0.00
2022-09-17T04:05:57.612Z,0.20
2022-09-17T04:08:25.604Z,0.10
2022-09-17T04:10:53.912Z,0.20
2022-09-17T04:13:23.168Z,0.10
2022-09-17T04:15:52.068Z,0.20
2022-09-17T04:18:20.448Z,0.17
2022-09-17T04:20:48.387Z,0.50
2022-09-17T04:23:16.294Z,1.75
2022-09-17T04:25:44.477Z,0.10
2022-09-17T04:28:12.691Z,0.57
2022-09-17T04:30:42.982Z,0.15
2022-09-17T04:33:12.159Z,0.30
2022-09-17T04:35:40.161Z,0.73
2022-09-17T04:38:08.052Z,0.30
2022-09-17T04:40:36.491Z,0.52
2022-09-17T04:43:04.458Z,1.30
2022-09-17T04:45:33.593Z,1.92
2022-09-17T04:48:03.897Z,0.45
2022-09-17T04:50:52.277Z,0.47
2022-09-17T04:53:21.255Z,1.62
2022-09-17T04:55:49.130Z,1.85
2022-09-17T04:58:17.062Z,1.95
2022-09-17T05:00:45.350Z,3.40
2022-09-17T05:03:14.701Z,4.37
2022-09-17T05:05:42.582Z,9.82
2022-09-17T05:08:10.698Z,17.62
2022-09-17T05:10:38.690Z,8.10
2022-09-17T05:13:06.661Z,8.85
2022-09-17T05:15:34.792Z,12.20
2022-09-17T05:18:02.949Z,14.73
2022-09-17T05:20:32.171Z,11.65
2022-09-17T05:23:00.365Z,13.93
2022-09-17T05:25:28.344Z,7.07
2022-09-17T05:27:56.383Z,10.80
2022-09-17T05:30:24.789Z,5.87
2022-09-17T05:33:00.537Z,7.55
2022-09-17T05:35:29.152Z,7.03
2022-09-17T05:38:03.815Z,5.25
2022-09-17T05:40:32.825Z,8.32
2022-09-17T05:43:02.109Z,6.43
2022-09-17T05:45:30.582Z,6.37
2022-09-17T05:48:00.054Z,9.82
2022-09-17T05:50:29.548Z,8.05
2022-09-17T05:52:59.287Z,8.73
2022-09-17T05:55:29.135Z,12.43
2022-09-17T05:57:57.017Z,9.98
2022-09-17T06:00:25.060Z,9.23
2022-09-17T06:02:56.386Z,14.52
2022-09-17T06:05:28.603Z,7.75
2022-09-17T06:07:57.301Z,7.82
2022-09-17T06:10:25.329Z,8.43
2022-09-17T06:12:57.989Z,4.50
2022-09-17T06:15:27.502Z,7.60
2022-09-17T06:17:58.046Z,5.75
2022-09-17T06:20:26.422Z,6.43
2022-09-17T06:22:57.596Z,6.28
2022-09-17T06:25:26.585Z,10.88
2022-09-17T06:27:54.848Z,7.25
2022-09-17T06:30:24.230Z,10.25
2022-09-17T06:32:52.082Z,10.80
2022-09-17T06:35:22.325Z,5.03
2022-09-17T06:37:50.458Z,10.18
2022-09-17T06:40:18.692Z,6.97
2022-09-17T06:42:47.114Z,9.13
2022-09-17T06:45:16.925Z,5.22
2022-09-17T06:47:46.530Z,3.47
2022-09-17T06:50:14.956Z,4.70
2022-09-17T06:52:50.204Z,5.85
2022-09-17T06:55:18.946Z,7.78
2022-09-17T06:57:46.918Z,5.35
2022-09-17T07:00:19.083Z,8.85
2022-09-17T07:02:57.703Z,11.43
2022-09-17T07:05:26.011Z,9.85
2022-09-17T07:07:54.647Z,10.45
2022-09-17T07:10:24.236Z,7.07
2022-09-17T07:12:52.175Z,13.62
2022-09-17T07:15:20.536Z,3.92
2022-09-17T07:17:48.444Z,11.93
2022-09-17T07:20:18.081Z,7.97
2022-09-17T07:22:46.720Z,5.28
2022-09-17T07:25:15.926Z,6.22
2022-09-17T07:27:43.801Z,11.65
2022-09-17T07:30:13.507Z,2.40
2022-09-17T07:32:41.937Z,5.10
2022-09-17T07:35:10.239Z,3.47
2022-09-17T07:37:40.017Z,2.05
2022-09-17T07:40:09.298Z,5.18
2022-09-17T07:42:37.446Z,3.50
2022-09-17T07:45:06.674Z,5.15
2022-09-17T07:47:39.861Z,3.92
2022-09-17T07:50:09.534Z,5.90
2022-09-17T07:52:46.869Z,6.20
2022-09-17T07:55:15.973Z,5.40
2022-09-17T07:57:44.090Z,5.30
2022-09-17T08:00:14.450Z,7.93
2022-09-17T08:02:44.078Z,5.43
2022-09-17T08:05:12.343Z,4.97
2022-09-17T08:07:41.653Z,4.12
2022-09-17T08:10:10.784Z,6.37
2022-09-17T08:12:38.906Z,7.20
2022-09-17T08:15:08.011Z,1.77
2022-09-17T08:17:37.999Z,7.43
2022-09-17T08:20:07.338Z,5.90
2022-09-17T08:22:35.432Z,10.07
2022-09-17T08:25:05.588Z,4.18
2022-09-17T08:27:33.872Z,3.47
2022-09-17T08:30:02.023Z,14.38
2022-09-17T08:32:31.355Z,8.10
2022-09-17T08:34:59.659Z,6.05
2022-09-17T08:37:29.825Z,4.10
2022-09-17T08:39:58.663Z,2.30
2022-09-17T08:42:34.599Z,5.35
2022-09-17T08:45:05.027Z,4.00
2022-09-17T08:47:37.724Z,11.02
2022-09-17T08:50:08.441Z,4.57
2022-09-17T08:53:08.971Z,7.15
2022-09-17T08:55:43.704Z,1.62
2022-09-17T08:58:29.123Z,11.68
2022-09-17T09:01:05.700Z,11.90
2022-09-17T09:03:49.786Z,5.12
2022-09-17T09:06:21.676Z,7.57
2022-09-17T09:08:53.066Z,8.57
2022-09-17T09:11:26.547Z,13.25
2022-09-17T09:14:01.438Z,12.18
2022-09-17T09:16:33.524Z,10.20
2022-09-17T09:19:15.582Z,7.75
2022-09-17T09:21:55.087Z,7.57
2022-09-17T09:24:26.195Z,7.32
2022-09-17T09:27:02.260Z,7.53
2022-09-17T09:29:41.683Z,6.22
2022-09-17T09:32:25.618Z,3.58
2022-09-17T09:34:56.974Z,6.62
2022-09-17T09:37:27.976Z,3.80
2022-09-17T09:40:02.122Z,2.45
2022-09-17T09:42:32.233Z,5.90
2022-09-17T09:45:05.571Z,1.20
2022-09-17T09:47:45.980Z,4.18
2022-09-17T09:50:48.365Z,6.07
2022-09-17T09:53:27.078Z,4.85
2022-09-17T09:56:06.980Z,4.05
2022-09-17T09:58:37.560Z,3.65
2022-09-17T10:01:13.888Z,5.18
2022-09-17T10:03:46.086Z,3.37
2022-09-17T10:06:15.443Z,3.12
2022-09-17T10:09:12.109Z,1.08
2022-09-17T10:11:40.596Z,3.45
2022-09-17T10:14:27.021Z,4.55
2022-09-17T10:17:12.901Z,1.75
2022-09-17T10:19:41.767Z,5.70
2022-09-17T10:22:21.584Z,2.25
2022-09-17T10:24:53.009Z,4.75
2022-09-17T10:27:23.663Z,2.80
2022-09-17T10:30:04.204Z,3.50
2022-09-17T10:32:32.177Z,5.72
2022-09-17T10:35:05.256Z,1.20
2022-09-17T10:37:36.504Z,3.35
2022-09-17T10:40:28.034Z,4.00
2022-09-17T10:43:22.879Z,4.97
2022-09-17T10:46:00.703Z,4.95
2022-09-17T10:48:33.737Z,3.40
2022-09-17T10:51:03.436Z,3.92
2022-09-17T10:53:31.354Z,6.62
2022-09-17T10:56:14.987Z,3.55
2022-09-17T10:58:53.603Z,3.12
2022-09-17T11:01:37.449Z,1.60
2022-09-17T11:04:27.477Z,5.03
2022-09-17T11:07:21.136Z,3.08
2022-09-17T11:09:57.491Z,3.55
2022-09-17T11:12:42.042Z,5.62
2022-09-17T11:15:23.539Z,2.22
2022-09-17T11:18:15.808Z,4.10
2022-09-17T11:21:08.399Z,1.60
2022-09-17T11:23:56.070Z,2.08
2022-09-17T11:26:33.590Z,2.40
2022-09-17T11:29:17.880Z,3.92
2022-09-17T11:31:49.640Z,5.90
2022-09-17T11:34:29.746Z,1.98
2022-09-17T11:37:05.598Z,3.25
2022-09-17T11:39:39.471Z,4.07
2022-09-17T11:42:13.331Z,2.55
2022-09-17T11:44:49.856Z,2.05
2022-09-17T11:47:22.608Z,4.30
2022-09-17T11:49:55.967Z,5.65
2022-09-17T11:52:27.428Z,2.00
2022-09-17T11:55:01.509Z,3.78
2022-09-17T11:57:33.904Z,4.25
2022-09-17T12:00:07.690Z,5.93
2022-09-17T12:02:49.610Z,2.28
2022-09-17T12:05:20.885Z,2.90
2022-09-17T12:07:55.389Z,1.52
2022-09-17T12:10:37.211Z,3.30
2022-09-17T12:13:17.680Z,5.72
2022-09-17T12:15:53.345Z,1.87
2022-09-17T12:18:34.899Z,7.05
2022-09-17T12:21:09.286Z,2.28
2022-09-17T12:23:41.762Z,3.45
2022-09-17T12:26:22.198Z,2.30
2022-09-17T12:28:59.258Z,1.85
2022-09-17T12:31:37.373Z,7.43
2022-09-17T12:34:23.811Z,1.83
2022-09-17T12:37:03.302Z,2.22
2022-09-17T12:40:09.618Z,1.65
2022-09-17T12:42:57.904Z,3.45
2022-09-17T12:45:40.109Z,4.57
2022-09-17T12:48:39.281Z,3.12
2022-09-17T12:51:25.402Z,1.55
2022-09-17T12:54:06.481Z,3.53
2022-09-17T12:56:51.102Z,2.35
2022-09-17T12:59:20.808Z,2.60
2022-09-17T13:01:54.006Z,2.65
2022-09-17T13:04:59.903Z,2.67
2022-09-17T13:08:09.016Z,2.17
2022-09-17T13:10:46.197Z,1.52
2022-09-17T13:13:29.351Z,8.40
2022-09-17T13:16:08.416Z,1.55
2022-09-17T13:19:15.022Z,7.40
2022-09-17T13:21:50.110Z,3.53
2022-09-17T13:24:25.693Z,1.42
2022-09-17T13:26:58.177Z,3.30
2022-09-17T13:30:01.213Z,3.22
2022-09-17T13:32:49.887Z,4.35
2022-09-17T13:35:50.011Z,3.70
2022-09-17T13:38:23.699Z,2.22
2022-09-17T13:40:53.252Z,11.23
2022-09-17T13:43:27.118Z,2.50
2022-09-17T13:46:12.762Z,4.85
2022-09-17T13:48:51.033Z,3.45
2022-09-17T13:51:52.840Z,1.98
2022-09-17T13:54:25.692Z,5.03
2022-09-17T13:57:10.072Z,3.92
2022-09-17T13:59:39.186Z,0.93
2022-09-17T14:02:36.322Z,3.85
2022-09-17T14:05:34.487Z,2.92
2022-09-17T14:08:28.565Z,0.85
2022-09-17T14:11:01.049Z,5.45
2022-09-17T14:13:50.917Z,1.45
2022-09-17T14:16:35.706Z,3.67
2022-09-17T14:19:19.504Z,3.47
2022-09-17T14:21:59.613Z,2.03
2022-09-17T14:24:33.462Z,2.33
2022-09-17T14:27:12.956Z,2.83
2022-09-17T14:30:00.330Z,0.82
2022-09-17T14:32:32.326Z,2.58
2022-09-17T14:35:02.356Z,0.75
2022-09-17T14:37:30.876Z,1.02
2022-09-17T14:40:00.022Z,4.62
2022-09-17T14:42:35.665Z,1.23
2022-09-17T14:45:09.320Z,1.77
2022-09-17T14:47:37.305Z,4.25
2022-09-17T14:50:21.545Z,1.02
2022-09-17T14:52:50.758Z,3.17
2022-09-17T14:55:21.198Z,3.72
2022-09-17T14:57:53.931Z,1.17
2022-09-17T15:00:25.076Z,3.28
2022-09-17T15:02:55.786Z,1.90
2022-09-17T15:05:27.146Z,1.95
2022-09-17T15:08:07.818Z,4.78
2022-09-17T15:10:37.237Z,1.92
2022-09-17T15:13:14.657Z,1.48
2022-09-17T15:15:53.886Z,1.85
2022-09-17T15:18:23.147Z,3.55
2022-09-17T15:21:01.896Z,2.17
2022-09-17T15:23:37.603Z,3.42
2022-09-17T15:26:07.146Z,2.80
2022-09-17T15:28:40.061Z,7.65
2022-09-17T15:31:18.056Z,4.50
2022-09-17T15:33:47.372Z,1.58
2022-09-17T15:36:21.477Z,1.08
2022-09-17T15:38:50.176Z,2.12
2022-09-17T15:41:28.259Z,3.35
2022-09-17T15:44:28.371Z,4.28
2022-09-17T15:46:56.847Z,4.85
2022-09-17T15:49:31.346Z,1.55
2022-09-17T15:52:32.874Z,2.37
2022-09-17T15:55:01.067Z,1.50
2022-09-17T15:57:32.324Z,1.87
2022-09-17T16:00:13.894Z,2.45
2022-09-17T16:02:42.198Z,1.50
2022-09-17T16:05:51.826Z,1.45
2022-09-17T16:08:25.363Z,1.37
2022-09-17T16:10:56.649Z,1.40
2022-09-17T16:13:30.451Z,0.73
2022-09-17T16:16:00.154Z,4.35
2022-09-17T16:18:28.432Z,3.40
2022-09-17T16:20:56.354Z,1.62
2022-09-17T16:23:24.819Z,2.17
2022-09-17T16:25:52.995Z,2.17
2022-09-17T16:28:24.579Z,2.22
2022-09-17T16:30:53.198Z,3.08
2022-09-17T16:33:22.451Z,2.30
2022-09-17T16:36:03.531Z,2.70
2022-09-17T16:38:36.615Z,3.80
2022-09-17T16:41:08.151Z,3.87
2022-09-17T16:43:36.284Z,1.50
2022-09-17T16:46:06.728Z,1.10
2022-09-17T16:48:49.373Z,0.70
2022-09-17T16:51:20.840Z,2.33
2022-09-17T16:53:50.091Z,1.65
2022-09-17T16:56:18.317Z,0.85
2022-09-17T16:58:46.319Z,1.20
2022-09-17T17:01:16.395Z,3.60
2022-09-17T17:03:54.927Z,3.72
2022-09-17T17:06:23.172Z,4.18
2022-09-17T17:08:51.792Z,3.45
2022-09-17T17:11:20.005Z,3.33
2022-09-17T17:13:48.319Z,2.05
2022-09-17T17:16:16.640Z,1.30
2022-09-17T17:18:46.136Z,1.25
2022-09-17T17:21:15.388Z,1.90
2022-09-17T17:23:44.449Z,2.25
2022-09-17T17:26:12.255Z,2.58
2022-09-17T17:28:40.103Z,1.12
2022-09-17T17:31:08.256Z,2.47
2022-09-17T17:33:36.477Z,1.98
2022-09-17T17:36:08.334Z,0.65
2022-09-17T17:38:37.316Z,0.88
2022-09-17T17:41:07.232Z,0.62
2022-09-17T17:43:35.545Z,1.23
2022-09-17T17:46:06.825Z,0.75
2022-09-17T17:48:34.983Z,1.30
2022-09-17T17:51:06.271Z,0.47
2022-09-17T17:53:34.385Z,1.35
2022-09-17T17:56:05.803Z,3.00
2022-09-17T17:58:34.506Z,0.85
2022-09-17T18:01:10.767Z,0.60
2022-09-17T18:03:39.025Z,1.85
2022-09-17T18:06:09.063Z,0.25
2022-09-17T18:08:38.247Z,0.70
2022-09-17T18:11:08.208Z,0.47
2022-09-17T18:13:37.064Z,0.93
2022-09-17T18:16:07.571Z,5.35
2022-09-17T18:18:43.521Z,2.47
2022-09-17T18:21:15.973Z,1.17
2022-09-17T18:23:45.030Z,0.50
2022-09-17T18:26:14.810Z,2.00
2022-09-17T18:28:42.821Z,3.12
2022-09-17T18:31:20.822Z,2.05
2022-09-17T18:33:57.853Z,4.07
2022-09-17T18:36:29.706Z,5.65
2022-09-17T18:39:11.071Z,7.25
2022-09-17T18:41:49.767Z,2.30
2022-09-17T18:44:19.003Z,2.33
2022-09-17T18:46:48.027Z,1.87
2022-09-17T18:49:16.630Z,4.07
2022-09-17T18:51:45.994Z,3.53
2022-09-17T18:54:14.122Z,1.27
2022-09-17T18:56:42.557Z,2.65
2022-09-17T18:59:11.217Z,1.35
2022-09-17T19:01:39.634Z,1.10
2022-09-17T19:04:08.346Z,5.78
2022-09-17T19:06:36.278Z,1.00
2022-09-17T19:09:06.318Z,0.80
2022-09-17T19:11:36.121Z,2.60
2022-09-17T19:14:04.254Z,0.62
2022-09-17T19:16:32.236Z,0.52
2022-09-17T19:19:00.499Z,2.08
2022-09-17T19:21:28.385Z,2.53
2022-09-17T19:23:56.287Z,0.50
2022-09-17T19:26:27.393Z,3.58
2022-09-17T19:28:57.760Z,1.87
2022-09-17T19:31:27.065Z,0.93
2022-09-17T19:33:55.349Z,1.27
2022-09-17T19:36:23.288Z,2.47
2022-09-17T19:38:51.531Z,0.82
2022-09-17T19:41:23.223Z,3.97
2022-09-17T19:43:54.454Z,1.00
2022-09-17T19:46:24.050Z,1.37
2022-09-17T19:48:54.514Z,0.25
2022-09-17T19:51:24.140Z,0.90
2022-09-17T19:53:52.509Z,1.62
2022-09-17T19:56:22.262Z,0.77
2022-09-17T19:58:50.407Z,1.45
2022-09-17T20:01:22.188Z,3.62
2022-09-17T20:03:50.383Z,2.33
2022-09-17T20:06:20.696Z,3.50
2022-09-17T20:08:50.132Z,0.73
2022-09-17T20:11:22.649Z,0.40
2022-09-17T20:13:50.721Z,2.78
2022-09-17T20:16:22.035Z,2.25
2022-09-17T20:18:50.337Z,1.00
2022-09-17T20:21:20.131Z,2.42
2022-09-17T20:23:48.363Z,1.95
2022-09-17T20:26:16.993Z,2.35
2022-09-17T20:28:45.942Z,2.10
2022-09-17T20:31:16.286Z,1.48
2022-09-17T20:33:46.665Z,1.83
2022-09-17T20:36:17.009Z,0.68
2022-09-17T20:41:34.341Z,0.95
2022-09-17T20:44:02.427Z,0.55
2022-09-17T20:46:30.445Z,0.13
2022-09-17T20:49:00.149Z,0.62
2022-09-17T20:51:29.551Z,2.28
2022-09-17T20:53:58.033Z,4.25
2022-09-17T20:56:28.255Z,1.65
2022-09-17T20:59:03.930Z,0.62
2022-09-17T21:01:34.436Z,2.05
2022-09-17T21:04:05.936Z,0.73
2022-09-17T21:06:35.801Z,0.43
2022-09-17T21:09:04.278Z,0.13
2022-09-17T21:11:32.237Z,2.17
2022-09-17T21:14:00.874Z,0.10
2022-09-17T21:16:29.226Z,2.75
2022-09-17T21:18:58.201Z,0.52
2022-09-17T21:21:28.336Z,3.08
2022-09-17T21:24:01.076Z,1.00
2022-09-17T21:26:29.912Z,1.23
2022-09-17T21:28:58.391Z,0.57
2022-09-17T21:31:32.099Z,2.78
2022-09-17T21:34:02.438Z,0.95
2022-09-17T21:36:33.239Z,1.08
2022-09-17T21:39:03.828Z,3.75
2022-09-17T21:41:32.527Z,0.70
2022-09-17T21:44:00.449Z,3.25
2022-09-17T21:46:30.494Z,1.25
2022-09-17T21:49:02.080Z,3.42
2022-09-17T21:51:34.024Z,3.87
2022-09-17T21:54:04.075Z,2.85
2022-09-17T21:56:32.932Z,2.50
2022-09-17T21:59:02.721Z,5.47
2022-09-17T22:01:32.692Z,1.45
2022-09-17T22:04:02.065Z,4.45
2022-09-17T22:06:32.929Z,1.87
2022-09-17T22:09:02.779Z,2.03
2022-09-17T22:11:33.033Z,2.78
2022-09-17T22:14:05.127Z,7.85
2022-09-17T22:16:35.937Z,5.12
2022-09-17T22:19:05.480Z,2.05
2022-09-17T22:21:36.435Z,6.28
2022-09-17T22:24:09.187Z,4.85
2022-09-17T22:26:39.335Z,3.95
2022-09-17T22:29:09.933Z,3.65
2022-09-17T22:31:37.915Z,4.25
2022-09-17T22:34:08.857Z,3.55
2022-09-17T22:36:39.537Z,2.47
2022-09-17T22:39:11.052Z,3.78
2022-09-17T22:41:45.850Z,5.45
2022-09-17T22:44:17.707Z,1.65
2022-09-17T22:46:47.614Z,5.85
2022-09-17T22:49:16.861Z,0.32
2022-09-17T22:51:47.594Z,6.18
2022-09-17T22:54:18.318Z,5.75
2022-09-17T22:56:49.407Z,1.23
2022-09-17T22:59:18.858Z,4.47
2022-09-17T23:01:47.372Z,5.50
2022-09-17T23:04:15.463Z,4.20
2022-09-17T23:06:46.450Z,3.75
2022-09-17T23:09:14.950Z,5.20
2022-09-17T23:11:43.440Z,2.45
2022-09-17T23:14:14.167Z,6.07
2022-09-17T23:16:44.358Z,4.32
2022-09-17T23:19:12.753Z,3.72
2022-09-17T23:21:41.471Z,3.58
2022-09-17T23:24:14.765Z,2.35
2022-09-17T23:26:42.861Z,2.78
2022-09-17T23:29:11.372Z,3.40
2022-09-17T23:31:40.166Z,1.50
2022-09-17T23:34:14.516Z,2.37
2022-09-17T23:36:42.611Z,3.60
2022-09-17T23:39:16.166Z,5.10
2022-09-17T23:41:45.454Z,2.12
2022-09-17T23:44:16.270Z,2.53
2022-09-17T23:46:46.210Z,5.75
2022-09-17T23:49:16.141Z,6.45
2022-09-17T23:51:47.355Z,2.78
2022-09-17T23:54:18.384Z,2.50
2022-09-17T23:56:46.298Z,4.10
2022-09-17T23:59:14.178Z,3.72
